FW8872 Weather Reports


time (UTC)temp
C
wind
direction
speed
KPH
gust
KPH
rain 1hr
cm
rain 24hr
cm
rain mn
cm
humidity
%
barometer
mb
20220811224616 36 180 4.8 29.0 0.00 0.00 0.00 27 1012.9
20220811223513 37 199 6.4 27.4 0.00 0.00 0.00 27 1013.0
20220811222314 37 15 6.4 33.8 0.00 0.00 0.00 28 1013.1
20220811221917 37 15 6.4 33.8 0.00 0.00 0.00 28 1013.1
20220811214914 37 2 6.4 22.5 0.00 0.00 0.00 28 1013.6
20220811213316 36 327 4.8 12.9 0.00 0.00 0.00 30 1014.1
20220811210022 36 137 6.4 29.0 0.00 0.00 0.00 29 1014.4
20220811201111 35 336 6.4 12.9 0.00 0.00 0.00 35 1015.0
20220811194811 35 325 6.4 38.6 0.00 0.00 0.00 35 1015.4
20220811194715 35 325 6.4 38.6 0.00 0.00 0.00 35 1015.4
20220811194013 35 312 6.4 17.7 0.00 0.00 0.00 36 1015.4
20220811185816 35 167 6.4 17.7 0.00 0.00 0.00 38 1016.4
20220811185446 35 167 6.4 17.7 0.00 0.00 0.00 38 1016.4
20220811182711 33 212 4.8 11.3 0.00 0.00 0.00 40 1016.8
20220811181018 34 216 4.8 12.9 0.00 0.00 0.00 39 1017.2
20220811174911 33 315 4.8 24.1 0.00 0.00 0.00 38 1017.4
20220811172517 33 327 4.8 11.3 0.00 0.00 0.00 41 1017.7
20220811171213 33 270 6.4 12.9 0.00 0.00 0.00 42 1017.9
20220811163714 32 292 6.4 11.3 0.00 0.00 0.00 42 1018.2
20220811162113 32 344 6.4 12.9 0.00 0.00 0.00 43 1018.2
20220811160315 32 228 4.8 11.3 0.00 0.00 0.00 45 1018.1
20220811155546 32 228 4.8 11.3 0.00 0.00 0.00 45 1018.1
20220811153915 31 250 4.8 12.9 0.00 0.00 0.00 46 1017.9
20220811152915 31 230 4.8 12.9 0.00 0.00 0.00 48 1018.1
20220811152213 30 218 6.4 12.9 0.00 0.00 0.00 49 1017.9
20220811152014 30 218 6.4 12.9 0.00 0.00 0.00 49 1017.9
20220811150413 30 244 4.8 6.4 0.00 0.00 0.00 50 1018.1
20220811143021 28 215 4.8 11.3 0.00 0.00 0.00 54 1017.9
20220811140212 26 202 4.8 12.9 0.00 0.00 0.00 59 1017.9
20220811132117 23 226 4.8 8.0 0.00 0.00 0.00 65 1017.6
20220811130016 23 291 4.8 8.0 0.00 0.00 0.00 66 1017.5
20220811124320 22 242 4.8 9.7 0.00 0.00 0.00 67 1017.6
20220811121816 23 230 4.8 14.5 0.00 0.00 0.00 66 1017.3
20220811121615 23 230 4.8 14.5 0.00 0.00 0.00 66 1017.3
20220811114616 23 227 4.8 9.7 0.00 0.00 0.00 65 1017.1
20220811110613 23 249 4.8 9.7 0.00 0.00 0.00 63 1017.0
20220811105814 23 238 4.8 8.0 0.00 0.00 0.00 63 1017.0
20220811103214 24 245 4.8 8.0 0.00 0.00 0.00 62 1016.7
20220811103111 24 239 4.8 11.3 0.00 0.00 0.00 62 1016.7
20220811102413 24 239 4.8 11.3 0.00 0.00 0.00 62 1016.7
20220811101510 24 247 4.8 8.0 0.00 0.00 0.00 61 1017.0
20220811095614 24 245 4.8 8.0 0.00 0.00 0.00 61 1016.7
20220811092146 24 237 4.8 9.7 0.00 0.00 0.00 60 1017.1
20220811091715 24 237 4.8 9.7 0.00 0.00 0.00 60 1017.1
20220811085144 24 239 4.8 8.0 0.00 0.00 0.00 61 1017.3
20220811084712 24 239 4.8 8.0 0.00 0.00 0.00 61 1017.3
20220811075913 24 258 4.8 8.0 0.00 0.00 0.00 61 1017.5
20220811075114 24 255 4.8 9.7 0.00 0.00 0.00 61 1017.6
20220811073013 24 254 4.8 8.0 0.00 0.00 0.00 61 1017.6
20220811072512 24 254 4.8 8.0 0.00 0.00 0.00 61 1017.6
20220811063912 25 226 6.4 12.9 0.00 0.00 0.00 60 1017.6
20220811054811 25 226 4.8 9.7 0.00 0.00 0.00 59 1017.9
20220811052013 25 223 4.8 12.9 0.00 0.00 0.00 58 1017.8
20220811050213 26 221 4.8 12.9 0.00 0.00 0.00 57 1017.8
20220811045714 26 223 4.8 11.3 0.00 0.00 0.00 57 1017.8
20220811042713 26 226 4.8 9.7 0.00 0.00 0.00 56 1017.7
20220811042315 26 226 4.8 9.7 0.00 0.00 0.00 56 1017.7
20220811041713 26 210 6.4 12.9 0.00 0.00 0.00 55 1017.7
20220811041617 26 210 6.4 12.9 0.00 0.00 0.00 55 1017.7
20220811040214 26 201 6.4 12.9 0.00 0.00 0.00 54 1017.7
20220811033018 27 212 4.8 8.0 0.00 0.03 0.00 51 1017.6
20220811032914 27 212 4.8 8.0 0.00 0.03 0.00 51 1017.6
20220811030323 28 200 4.8 11.3 0.00 0.03 0.00 51 1017.3
20220811025913 28 210 4.8 9.7 0.00 0.03 0.00 50 1017.2
20220811025715 28 210 4.8 9.7 0.00 0.03 0.00 50 1017.2
20220811023312 28 177 4.8 12.9 0.00 0.03 0.00 48 1017.0
20220811015016 30 182 4.8 8.0 0.00 0.03 0.00 43 1016.6
20220811013713 30 285 4.8 12.9 0.00 0.05 0.00 41 1016.4
20220811013613 30 285 4.8 12.9 0.00 0.05 0.00 41 1016.4
20220811013016 30 285 4.8 12.9 0.00 0.05 0.00 41 1016.4
20220811012013 31 200 4.8 19.3 0.00 0.05 0.00 40 1016.2
20220811011919 31 161 4.8 12.9 0.00 0.05 0.00 40 1016.2
20220811011418 31 161 4.8 12.9 0.00 0.05 0.00 40 1016.2
20220811003215 32 180 6.4 19.3 0.00 0.05 0.00 38 1015.6
20220810235913 32 15 6.4 22.5 0.00 0.05 0.00 38 1015.9
20220810235511 32 15 6.4 22.5 0.00 0.05 0.00 38 1015.9
20220810233516 32 11 6.4 25.7 0.00 0.05 0.00 40 1016.2
20220810232514 32 9 6.4 17.7 0.00 0.05 0.00 41 1016.4
20220810230916 32 18 11.3 35.4 0.00 0.05 0.00 41 1016.4
20220810230415 32 30 9.7 22.5 0.00 0.05 0.00 40 1016.5
20220810225515 32 77 8.0 32.2 0.00 0.05 0.00 40 1016.6